createdAt,value
2022-10-25T00:02:02.142Z,86.12
2022-10-25T00:04:32.532Z,85.98
2022-10-25T00:07:02.686Z,86.17
2022-10-25T00:09:32.808Z,86.10
2022-10-25T00:12:03.030Z,86.17
2022-10-25T00:14:33.412Z,86.00
2022-10-25T00:17:03.474Z,85.84
2022-10-25T00:19:33.647Z,85.84
2022-10-25T00:22:03.741Z,85.90
2022-10-25T00:24:33.891Z,85.84
2022-10-25T00:27:04.046Z,85.77
2022-10-25T00:29:34.269Z,85.84
2022-10-25T00:32:04.509Z,85.97
2022-10-25T00:34:34.570Z,85.98
2022-10-25T00:37:04.695Z,86.09
2022-10-25T00:39:34.859Z,86.09
2022-10-25T00:42:04.951Z,86.35
2022-10-25T00:44:41.141Z,86.44
2022-10-25T00:47:23.240Z,86.41
2022-10-25T00:50:22.622Z,86.78
2022-10-25T00:52:58.825Z,86.70
2022-10-25T00:55:32.837Z,86.54
2022-10-25T00:58:08.703Z,86.90
2022-10-25T01:00:39.330Z,86.92
2022-10-25T01:03:10.162Z,87.05
2022-10-25T01:05:40.831Z,86.86
2022-10-25T01:08:12.390Z,87.27
2022-10-25T01:10:42.838Z,87.15
2022-10-25T01:13:13.074Z,87.44
2022-10-25T01:16:30.812Z,87.77
2022-10-25T01:19:44.868Z,87.72
2022-10-25T01:22:39.399Z,87.74
2022-10-25T01:25:24.457Z,87.64
2022-10-25T01:28:21.685Z,88.26
2022-10-25T01:31:00.751Z,88.04
2022-10-25T01:34:16.794Z,88.37
2022-10-25T01:36:55.835Z,87.90
2022-10-25T01:39:35.517Z,87.94
2022-10-25T01:42:12.102Z,88.10
2022-10-25T01:44:54.490Z,88.73
2022-10-25T01:47:41.037Z,87.93
2022-10-25T01:50:41.277Z,88.11
2022-10-25T01:53:12.514Z,87.73
2022-10-25T01:55:55.293Z,87.79
2022-10-25T01:58:40.580Z,87.90
2022-10-25T02:01:19.981Z,87.93
2022-10-25T02:04:06.745Z,87.92
2022-10-25T02:07:01.230Z,87.84
2022-10-25T02:09:50.555Z,87.68
2022-10-25T02:12:34.147Z,87.90
2022-10-25T02:15:15.954Z,87.86
2022-10-25T02:18:01.067Z,87.90
2022-10-25T02:20:34.962Z,87.60
2022-10-25T02:23:06.817Z,87.63
2022-10-25T02:25:41.284Z,87.80
2022-10-25T02:28:14.812Z,87.54
2022-10-25T02:30:45.371Z,87.70
2022-10-25T02:33:15.616Z,87.80
2022-10-25T02:35:45.987Z,87.72
2022-10-25T02:38:16.166Z,87.78
2022-10-25T02:40:46.304Z,87.55
2022-10-25T02:43:16.651Z,87.74
2022-10-25T02:45:46.788Z,87.72
2022-10-25T02:48:17.325Z,87.72
2022-10-25T02:50:47.518Z,87.89
2022-10-25T02:53:18.127Z,87.78
2022-10-25T02:55:48.300Z,87.81
2022-10-25T02:58:18.443Z,87.54
2022-10-25T03:00:48.990Z,87.31
2022-10-25T03:03:19.161Z,87.26
2022-10-25T03:05:49.278Z,87.39
2022-10-25T03:08:20.363Z,87.19
2022-10-25T03:10:51.013Z,87.26
2022-10-25T03:13:21.226Z,87.15
2022-10-25T03:15:51.367Z,87.12
2022-10-25T03:18:23.079Z,87.34
2022-10-25T03:20:57.261Z,87.50
2022-10-25T03:23:28.318Z,87.51
2022-10-25T03:26:00.101Z,87.41
2022-10-25T03:28:31.912Z,87.32
2022-10-25T03:31:02.152Z,87.07
2022-10-25T03:33:32.270Z,87.17
2022-10-25T03:36:02.436Z,87.10
2022-10-25T03:38:32.809Z,86.90
2022-10-25T03:41:03.651Z,86.88
2022-10-25T03:43:33.750Z,86.96
2022-10-25T03:46:04.016Z,86.74
2022-10-25T03:48:34.175Z,86.89
2022-10-25T03:51:04.773Z,86.86
2022-10-25T03:53:34.904Z,86.82
2022-10-25T03:56:05.384Z,86.90
2022-10-25T03:58:35.494Z,86.90
2022-10-25T04:01:09.411Z,86.82
2022-10-25T04:03:39.737Z,86.89
2022-10-25T04:06:09.910Z,87.05
2022-10-25T04:08:40.061Z,86.84
2022-10-25T04:11:10.240Z,87.07
2022-10-25T04:13:40.354Z,86.66
2022-10-25T04:16:10.800Z,86.95
2022-10-25T04:18:40.900Z,87.00
2022-10-25T04:21:11.086Z,87.09
2022-10-25T04:23:41.243Z,87.23
2022-10-25T04:26:14.672Z,87.01
2022-10-25T04:28:55.874Z,87.18
2022-10-25T04:31:26.166Z,86.93
2022-10-25T04:33:57.167Z,87.05
2022-10-25T04:36:30.188Z,86.96
2022-10-25T04:39:00.308Z,86.79
2022-10-25T04:41:31.326Z,87.04
2022-10-25T04:44:01.485Z,86.98
2022-10-25T04:46:31.625Z,86.73
2022-10-25T04:49:01.831Z,86.75
2022-10-25T04:51:32.257Z,86.68
2022-10-25T04:54:02.326Z,86.72
2022-10-25T04:56:32.579Z,86.76
2022-10-25T04:59:02.722Z,86.88
2022-10-25T05:01:33.147Z,86.72
2022-10-25T05:04:03.335Z,86.88
2022-10-25T05:06:33.530Z,86.87
2022-10-25T05:09:04.357Z,86.85
2022-10-25T05:11:34.574Z,86.93
2022-10-25T05:14:04.694Z,86.87
2022-10-25T05:16:35.508Z,86.80
2022-10-25T05:19:05.650Z,86.83
2022-10-25T05:21:35.959Z,86.98
2022-10-25T05:24:06.383Z,87.14
2022-10-25T05:26:36.473Z,87.12
2022-10-25T05:29:10.130Z,87.13
2022-10-25T05:31:41.633Z,86.97
2022-10-25T05:34:11.718Z,86.88
2022-10-25T05:36:41.909Z,86.71
2022-10-25T05:39:12.071Z,86.73
2022-10-25T05:41:42.903Z,86.82
2022-10-25T05:44:15.091Z,86.70
2022-10-25T05:46:45.808Z,86.39
2022-10-25T05:49:15.979Z,86.53
2022-10-25T05:51:46.063Z,86.34
2022-10-25T05:54:16.732Z,86.73
2022-10-25T05:56:46.779Z,86.47
2022-10-25T05:59:16.991Z,86.27
2022-10-25T06:01:47.374Z,86.32
2022-10-25T06:04:18.227Z,86.50
2022-10-25T06:06:48.434Z,86.63
2022-10-25T06:09:18.570Z,86.51
2022-10-25T06:11:48.656Z,86.30
2022-10-25T06:14:18.806Z,86.47
2022-10-25T06:16:48.993Z,86.62
2022-10-25T06:19:19.236Z,86.30
2022-10-25T06:21:49.306Z,86.60
2022-10-25T06:24:19.439Z,86.53
2022-10-25T06:26:50.165Z,86.47
2022-10-25T06:29:20.277Z,86.37
2022-10-25T06:31:50.445Z,86.50
2022-10-25T06:34:20.860Z,86.13
2022-10-25T06:36:51.037Z,86.52
2022-10-25T06:39:21.129Z,86.54
2022-10-25T06:41:51.212Z,86.87
2022-10-25T06:44:21.349Z,87.05
2022-10-25T06:47:16.346Z,86.86
2022-10-25T06:49:41.577Z,86.63
2022-10-25T06:52:11.690Z,86.67
2022-10-25T06:54:41.737Z,86.70
2022-10-25T06:57:11.790Z,86.45
2022-10-25T06:59:42.053Z,86.59
2022-10-25T07:02:12.341Z,86.42
2022-10-25T07:04:42.702Z,86.52
2022-10-25T07:07:15.063Z,86.47
2022-10-25T07:09:45.174Z,86.62
2022-10-25T07:12:15.432Z,86.74
2022-10-25T07:14:45.499Z,86.62
2022-10-25T07:17:24.227Z,86.34
2022-10-25T07:19:54.995Z,86.35
2022-10-25T07:22:25.358Z,86.34
2022-10-25T07:24:55.606Z,85.94
2022-10-25T07:27:25.784Z,86.03
2022-10-25T07:29:56.112Z,85.85
2022-10-25T07:32:26.243Z,86.14
2022-10-25T07:37:31.368Z,86.24
2022-10-25T07:40:01.563Z,85.98
2022-10-25T07:42:31.659Z,85.92
2022-10-25T07:45:01.989Z,85.82
2022-10-25T07:47:32.091Z,85.86
2022-10-25T07:50:02.313Z,86.24
2022-10-25T07:52:32.486Z,86.14
2022-10-25T07:55:02.648Z,85.93
2022-10-25T07:57:40.852Z,85.70
2022-10-25T08:00:14.137Z,85.57
2022-10-25T08:02:51.606Z,85.42
2022-10-25T08:05:21.771Z,85.57
2022-10-25T08:07:51.937Z,85.63
2022-10-25T08:10:22.445Z,85.52
2022-10-25T08:12:55.682Z,85.68
2022-10-25T08:15:27.596Z,85.45
2022-10-25T08:18:02.167Z,85.43
2022-10-25T08:21:00.069Z,85.45
2022-10-25T08:23:22.499Z,85.50
2022-10-25T08:25:52.975Z,85.58
2022-10-25T08:28:23.246Z,85.20
2022-10-25T08:30:55.886Z,85.07
2022-10-25T08:33:26.891Z,85.32
2022-10-25T08:36:00.809Z,85.30
2022-10-25T08:38:31.089Z,85.31
2022-10-25T08:41:17.796Z,85.39
2022-10-25T08:46:44.945Z,85.15
2022-10-25T08:49:32.955Z,84.25
2022-10-25T08:52:05.443Z,84.85
2022-10-25T08:54:39.589Z,84.45
2022-10-25T08:57:25.110Z,84.29
2022-10-25T09:00:00.404Z,84.49
2022-10-25T09:03:01.655Z,83.81
2022-10-25T09:05:41.727Z,84.05
2022-10-25T09:08:27.427Z,83.76
2022-10-25T09:11:23.655Z,83.82
2022-10-25T09:14:07.994Z,83.65
2022-10-25T09:16:51.112Z,83.58
2022-10-25T09:19:35.497Z,83.91
2022-10-25T09:22:27.785Z,83.51
2022-10-25T09:25:01.007Z,83.39
2022-10-25T09:27:37.454Z,82.85
2022-10-25T09:30:12.623Z,82.75
2022-10-25T09:32:48.466Z,83.27
2022-10-25T09:35:23.358Z,83.42
2022-10-25T09:38:22.509Z,81.79
2022-10-25T09:41:05.472Z,82.02
2022-10-25T09:43:53.736Z,81.69
2022-10-25T09:46:37.164Z,82.05
2022-10-25T09:49:36.826Z,82.17
2022-10-25T09:52:52.015Z,81.94
2022-10-25T09:55:48.582Z,82.43
2022-10-25T09:58:27.145Z,82.21
2022-10-25T10:01:02.435Z,82.50
2022-10-25T10:03:36.135Z,82.54
2022-10-25T10:06:32.902Z,81.94
2022-10-25T10:09:06.570Z,82.77
2022-10-25T10:11:37.044Z,82.79
2022-10-25T10:14:18.460Z,82.36
2022-10-25T10:16:52.459Z,82.21
2022-10-25T10:19:30.756Z,82.50
2022-10-25T10:22:07.033Z,82.63
2022-10-25T10:24:40.321Z,81.99
2022-10-25T10:27:13.785Z,82.05
2022-10-25T10:30:00.101Z,81.41
2022-10-25T10:32:33.406Z,80.65
2022-10-25T10:35:08.466Z,81.64
2022-10-25T10:37:38.717Z,81.87
2022-10-25T10:40:08.719Z,82.07
2022-10-25T10:42:43.314Z,82.19
2022-10-25T10:45:18.952Z,81.67
2022-10-25T10:47:49.018Z,81.80
2022-10-25T10:50:25.836Z,81.59
2022-10-25T10:52:59.439Z,81.38
2022-10-25T10:55:52.769Z,80.95
2022-10-25T10:58:37.655Z,79.95
2022-10-25T11:01:11.313Z,80.75
2022-10-25T11:03:48.930Z,80.55
2022-10-25T11:06:33.031Z,80.70
2022-10-25T11:09:20.409Z,80.22
2022-10-25T11:12:12.886Z,79.22
2022-10-25T11:14:43.136Z,80.49
2022-10-25T11:17:32.133Z,78.25
2022-10-25T11:20:22.336Z,77.59
2022-10-25T11:22:56.492Z,79.25
2022-10-25T11:25:30.275Z,78.78
2022-10-25T11:28:18.763Z,79.67
2022-10-25T11:31:06.336Z,78.64
2022-10-25T11:33:44.601Z,79.81
2022-10-25T11:36:34.908Z,77.24
2022-10-25T11:39:37.185Z,78.24
2022-10-25T11:42:38.890Z,77.76
2022-10-25T11:45:28.769Z,77.77
2022-10-25T11:48:23.811Z,77.12
2022-10-25T11:51:06.639Z,78.13
2022-10-25T11:53:53.080Z,78.35
2022-10-25T11:56:36.693Z,78.00
2022-10-25T11:59:20.379Z,77.57
2022-10-25T12:02:22.912Z,77.45
2022-10-25T12:04:59.137Z,77.77
2022-10-25T12:07:47.983Z,78.36
2022-10-25T12:10:18.093Z,78.94
2022-10-25T12:13:17.601Z,76.57
2022-10-25T12:15:51.454Z,78.27
2022-10-25T12:18:30.010Z,75.81
2022-10-25T12:21:02.596Z,77.41
2022-10-25T12:23:47.083Z,75.47
2022-10-25T12:26:28.041Z,76.41
2022-10-25T12:29:01.870Z,77.16
2022-10-25T12:31:38.359Z,76.51
2022-10-25T12:34:12.942Z,72.35
2022-10-25T12:36:47.652Z,75.08
2022-10-25T12:39:28.670Z,73.24
2022-10-25T12:42:11.713Z,71.56
2022-10-25T12:44:51.889Z,71.33
2022-10-25T12:47:41.028Z,70.27
2022-10-25T12:50:22.888Z,71.32
2022-10-25T12:53:18.011Z,70.40
2022-10-25T12:56:01.962Z,71.69
2022-10-25T12:59:16.599Z,69.76
2022-10-25T13:02:18.685Z,69.57
2022-10-25T13:05:07.536Z,72.80
2022-10-25T13:07:38.817Z,73.28
2022-10-25T13:13:06.938Z,71.82
2022-10-25T13:15:59.129Z,70.52
2022-10-25T13:18:42.777Z,70.60
2022-10-25T13:21:14.693Z,72.37
2022-10-25T13:23:50.264Z,72.24
2022-10-25T13:26:25.926Z,71.88
2022-10-25T13:28:57.381Z,71.71
2022-10-25T13:31:36.613Z,71.15
2022-10-25T13:34:12.581Z,71.77
2022-10-25T13:36:54.637Z,70.48
2022-10-25T13:39:45.673Z,70.38
2022-10-25T13:42:15.762Z,72.05
2022-10-25T13:44:59.180Z,71.00
2022-10-25T13:47:46.217Z,70.41
2022-10-25T13:50:41.974Z,71.67
2022-10-25T13:53:33.198Z,70.07
2022-10-25T13:56:14.010Z,71.73
2022-10-25T13:58:47.624Z,72.34
2022-10-25T14:01:17.961Z,72.38
2022-10-25T14:04:03.665Z,72.02
2022-10-25T14:06:47.429Z,71.75
2022-10-25T14:09:36.789Z,70.12
2022-10-25T14:12:19.362Z,71.29
2022-10-25T14:15:28.854Z,71.07
2022-10-25T14:17:59.780Z,71.43
2022-10-25T14:20:32.620Z,71.31
2022-10-25T14:23:13.293Z,71.63
2022-10-25T14:25:54.441Z,71.38
2022-10-25T14:28:28.760Z,71.45
2022-10-25T14:31:01.472Z,71.70
2022-10-25T14:33:39.478Z,71.26
2022-10-25T14:36:30.534Z,71.31
2022-10-25T14:39:03.531Z,72.04
2022-10-25T14:41:35.781Z,71.95
2022-10-25T14:44:25.679Z,71.30
2022-10-25T14:46:57.578Z,72.02
2022-10-25T14:49:27.808Z,72.05
2022-10-25T14:52:03.065Z,71.95
2022-10-25T14:54:34.835Z,71.92
2022-10-25T14:57:07.329Z,71.95
2022-10-25T14:59:46.457Z,71.74
2022-10-25T15:02:21.951Z,71.83
2022-10-25T15:04:57.691Z,71.82
2022-10-25T15:07:33.950Z,72.00
2022-10-25T15:12:36.090Z,71.97
2022-10-25T15:15:44.285Z,71.56
2022-10-25T15:18:30.399Z,71.95
2022-10-25T15:21:14.336Z,72.02
2022-10-25T15:24:09.960Z,71.81
2022-10-25T15:26:52.426Z,72.10
2022-10-25T15:32:27.778Z,72.47
2022-10-25T15:35:01.397Z,72.72
2022-10-25T15:37:31.564Z,72.59
2022-10-25T15:40:04.662Z,72.56
2022-10-25T15:42:34.777Z,72.74
2022-10-25T15:45:06.064Z,72.75
2022-10-25T15:47:39.140Z,72.79
2022-10-25T15:50:18.763Z,72.63
2022-10-25T15:52:49.251Z,72.68
2022-10-25T15:55:25.069Z,72.82
2022-10-25T15:57:55.510Z,72.93
2022-10-25T16:00:28.103Z,72.80
2022-10-25T16:02:59.441Z,73.13
2022-10-25T16:05:34.321Z,73.29
2022-10-25T16:08:05.333Z,72.98
2022-10-25T16:10:36.589Z,73.16
2022-10-25T16:13:16.507Z,72.97
2022-10-25T16:15:46.658Z,73.28
2022-10-25T16:18:16.772Z,73.12
2022-10-25T16:20:47.051Z,73.03
2022-10-25T16:23:24.014Z,72.78
2022-10-25T16:25:55.650Z,73.05
2022-10-25T16:31:22.666Z,72.76
2022-10-25T16:33:52.779Z,72.95
2022-10-25T16:36:25.230Z,72.97
2022-10-25T16:38:55.471Z,73.07
2022-10-25T16:41:31.331Z,73.11
2022-10-25T16:44:01.405Z,73.18
2022-10-25T16:46:31.489Z,73.03
2022-10-25T16:49:02.308Z,73.14
2022-10-25T16:51:34.851Z,73.01
2022-10-25T16:54:05.469Z,73.07
2022-10-25T16:56:35.911Z,73.20
2022-10-25T16:59:07.218Z,73.12
2022-10-25T17:01:41.221Z,73.09
2022-10-25T17:04:14.925Z,73.25
2022-10-25T17:06:45.112Z,73.00
2022-10-25T17:09:15.223Z,73.12
2022-10-25T17:11:46.158Z,73.17
2022-10-25T17:14:16.334Z,73.28
2022-10-25T17:16:48.439Z,73.45
2022-10-25T17:19:20.091Z,73.62
2022-10-25T17:21:53.059Z,73.49
2022-10-25T17:24:28.952Z,73.55
2022-10-25T17:27:01.640Z,73.83
2022-10-25T17:29:31.998Z,73.65
2022-10-25T17:32:02.130Z,73.66
2022-10-25T17:34:32.255Z,73.90
2022-10-25T17:37:03.894Z,73.98
2022-10-25T17:39:34.063Z,74.00
2022-10-25T17:42:04.420Z,74.11
2022-10-25T17:44:34.543Z,74.00
2022-10-25T17:47:04.753Z,74.26
2022-10-25T17:49:34.887Z,74.35
2022-10-25T17:52:06.902Z,74.15
2022-10-25T17:54:38.643Z,74.12
2022-10-25T17:57:08.793Z,74.08
2022-10-25T17:59:39.005Z,73.90
2022-10-25T18:02:11.360Z,73.92
2022-10-25T18:05:00.996Z,73.81
2022-10-25T18:07:35.143Z,73.67
2022-10-25T18:10:06.082Z,73.79
2022-10-25T18:12:36.161Z,73.78
2022-10-25T18:15:09.035Z,73.81
2022-10-25T18:17:40.884Z,73.82
2022-10-25T18:20:11.513Z,73.71
2022-10-25T18:22:41.729Z,73.99
2022-10-25T18:25:11.985Z,74.08
2022-10-25T18:27:42.247Z,74.29
2022-10-25T18:30:12.792Z,74.32
2022-10-25T18:32:42.929Z,74.43
2022-10-25T18:35:13.141Z,74.45
2022-10-25T18:37:43.320Z,74.37
2022-10-25T18:40:14.472Z,74.54
2022-10-25T18:42:44.802Z,74.56
2022-10-25T18:45:14.976Z,74.46
2022-10-25T18:47:49.776Z,74.49
2022-10-25T18:50:20.757Z,74.51
2022-10-25T18:52:52.025Z,74.55
2022-10-25T18:55:28.114Z,74.61
2022-10-25T18:58:01.683Z,74.51
2022-10-25T19:00:32.058Z,74.54
2022-10-25T19:03:02.629Z,74.70
2022-10-25T19:05:32.908Z,74.61
2022-10-25T19:08:02.984Z,74.72
2022-10-25T19:10:36.661Z,74.69
2022-10-25T19:13:08.427Z,74.71
2022-10-25T19:15:38.604Z,74.85
2022-10-25T19:18:08.729Z,75.00
2022-10-25T19:20:40.903Z,75.11
2022-10-25T19:23:14.167Z,75.23
2022-10-25T19:25:44.741Z,75.13
2022-10-25T19:28:14.814Z,75.42
2022-10-25T19:30:45.138Z,75.27
2022-10-25T19:33:15.215Z,75.67
2022-10-25T19:35:45.371Z,75.76
2022-10-25T19:38:15.689Z,75.78
2022-10-25T19:40:45.813Z,75.91
2022-10-25T19:43:15.932Z,76.38
2022-10-25T19:45:56.805Z,79.51
2022-10-25T19:48:28.631Z,78.99
2022-10-25T19:51:08.634Z,80.05
2022-10-25T19:53:39.465Z,79.29
2022-10-25T19:56:17.581Z,80.72
2022-10-25T19:58:48.366Z,80.37
2022-10-25T20:01:21.683Z,80.27
2022-10-25T20:03:54.800Z,80.02
2022-10-25T20:06:27.758Z,79.88
2022-10-25T20:09:02.122Z,79.85
2022-10-25T20:11:33.986Z,80.02
2022-10-25T20:14:04.756Z,80.02
2022-10-25T20:16:35.061Z,80.05
2022-10-25T20:19:05.488Z,80.07
2022-10-25T20:21:39.949Z,79.92
2022-10-25T20:24:10.444Z,79.87
2022-10-25T20:26:42.268Z,80.01
2022-10-25T20:29:22.881Z,80.69
2022-10-25T20:31:53.583Z,79.92
2022-10-25T20:34:24.356Z,79.91
2022-10-25T20:36:54.578Z,80.32
2022-10-25T20:39:24.721Z,80.26
2022-10-25T20:41:54.849Z,80.08
2022-10-25T20:44:25.109Z,80.17
2022-10-25T20:46:55.196Z,80.04
2022-10-25T20:49:25.316Z,80.31
2022-10-25T20:51:55.465Z,80.24
2022-10-25T20:54:25.516Z,80.21
2022-10-25T20:56:55.705Z,80.37
2022-10-25T20:59:25.758Z,80.51
2022-10-25T21:01:55.989Z,80.48
2022-10-25T21:04:42.286Z,80.76
2022-10-25T21:07:16.351Z,80.71
2022-10-25T21:09:49.411Z,80.94
2022-10-25T21:12:19.773Z,80.95
2022-10-25T21:14:50.123Z,80.97
2022-10-25T21:17:20.893Z,80.82
2022-10-25T21:19:51.089Z,80.54
2022-10-25T21:22:21.301Z,80.72
2022-10-25T21:24:51.462Z,80.73
2022-10-25T21:27:22.082Z,80.81
2022-10-25T21:29:52.240Z,80.86
2022-10-25T21:32:22.305Z,80.47
2022-10-25T21:34:52.389Z,80.45
2022-10-25T21:37:22.486Z,80.97
2022-10-25T21:39:52.677Z,80.97
2022-10-25T21:42:22.794Z,80.87
2022-10-25T21:44:53.038Z,81.00
2022-10-25T21:47:23.138Z,80.87
2022-10-25T21:49:53.333Z,80.99
2022-10-25T21:52:23.618Z,80.77
2022-10-25T21:54:53.751Z,80.73
2022-10-25T21:57:24.253Z,80.77
2022-10-25T21:59:54.378Z,80.73
2022-10-25T22:02:24.793Z,80.64
2022-10-25T22:04:55.131Z,80.25
2022-10-25T22:07:25.241Z,80.68
2022-10-25T22:09:55.311Z,80.50
2022-10-25T22:12:25.407Z,80.43
2022-10-25T22:14:55.536Z,80.19
2022-10-25T22:17:25.696Z,79.93
2022-10-25T22:19:55.856Z,80.02
2022-10-25T22:22:25.987Z,79.85
2022-10-25T22:24:56.018Z,79.58
2022-10-25T22:27:29.914Z,79.87
2022-10-25T22:30:01.283Z,79.71
2022-10-25T22:32:31.841Z,79.48
2022-10-25T22:35:02.996Z,79.55
2022-10-25T22:37:33.247Z,79.35
2022-10-25T22:40:03.727Z,79.63
2022-10-25T22:42:35.631Z,79.64
2022-10-25T22:45:06.256Z,79.31
2022-10-25T22:47:36.350Z,79.52
2022-10-25T22:50:06.946Z,79.54
2022-10-25T22:52:37.129Z,79.42
2022-10-25T22:55:10.642Z,79.33
2022-10-25T22:57:43.027Z,79.16
2022-10-25T23:00:13.575Z,79.39
2022-10-25T23:02:43.623Z,79.26
2022-10-25T23:05:14.021Z,79.37
2022-10-25T23:07:44.251Z,79.63
2022-10-25T23:10:14.708Z,79.76
2022-10-25T23:12:48.338Z,79.90
2022-10-25T23:15:18.688Z,79.87
2022-10-25T23:17:48.868Z,79.84
2022-10-25T23:20:18.956Z,79.73
2022-10-25T23:22:49.233Z,79.76
2022-10-25T23:25:19.553Z,79.57
2022-10-25T23:27:49.962Z,79.35
2022-10-25T23:30:20.232Z,79.21
2022-10-25T23:32:50.289Z,79.02
2022-10-25T23:35:20.464Z,79.03
2022-10-25T23:37:50.688Z,79.26
2022-10-25T23:40:21.297Z,78.91
2022-10-25T23:42:51.469Z,78.99
2022-10-25T23:45:21.561Z,78.98
2022-10-25T23:47:51.832Z,78.80
2022-10-25T23:50:22.067Z,78.92
2022-10-25T23:52:52.444Z,78.86
2022-10-25T23:55:22.669Z,78.78
2022-10-25T23:57:59.132Z,78.54
